sensor_id;sensor_type;location;lat;lon;timestamp;pressure;altitude;pressure_sealevel;temperature;humidity
67457;BME280;54319;52.038;4.640;2023-10-31T00:01:32;99733.22;;;9.51;100.00
67457;BME280;54319;52.038;4.640;2023-10-31T00:03:59;99731.78;;;9.49;100.00
67457;BME280;54319;52.038;4.640;2023-10-31T00:06:25;99744.19;;;9.45;100.00
67457;BME280;54319;52.038;4.640;2023-10-31T00:08:52;99739.34;;;9.47;100.00
67457;BME280;54319;52.038;4.640;2023-10-31T00:11:19;99741.03;;;9.48;100.00
67457;BME280;54319;52.038;4.640;2023-10-31T00:13:45;99732.22;;;9.46;100.00
67457;BME280;54319;52.038;4.640;2023-10-31T00:16:13;99696.19;;;9.20;100.00
67457;BME280;54319;52.038;4.640;2023-10-31T00:18:40;99739.34;;;9.47;100.00
67457;BME280;54319;52.038;4.640;2023-10-31T00:21:06;99684.13;;;9.16;100.00
67457;BME280;54319;52.038;4.640;2023-10-31T00:23:33;99729.50;;;9.46;100.00
67457;BME280;54319;52.038;4.640;2023-10-31T00:26:00;99724.53;;;9.43;100.00
67457;BME280;54319;52.038;4.640;2023-10-31T00:28:26;99731.63;;;9.44;100.00
67457;BME280;54319;52.038;4.640;2023-10-31T00:30:53;99740.41;;;9.46;100.00
67457;BME280;54319;52.038;4.640;2023-10-31T00:33:21;99736.63;;;9.47;100.00
67457;BME280;54319;52.038;4.640;2023-10-31T00:35:51;99742.69;;;9.49;100.00
67457;BME280;54319;52.038;4.640;2023-10-31T00:38:17;99717.75;;;9.33;100.00
67457;BME280;54319;52.038;4.640;2023-10-31T00:40:44;99746.91;;;9.45;100.00
67457;BME280;54319;52.038;4.640;2023-10-31T00:43:11;99739.97;;;9.49;100.00
67457;BME280;54319;52.038;4.640;2023-10-31T00:45:37;99742.56;;;9.55;100.00
67457;BME280;54319;52.038;4.640;2023-10-31T00:48:07;99748.59;;;9.58;100.00
67457;BME280;54319;52.038;4.640;2023-10-31T00:50:37;99753.84;;;9.59;100.00
67457;BME280;54319;52.038;4.640;2023-10-31T00:53:04;99758.22;;;9.60;100.00
67457;BME280;54319;52.038;4.640;2023-10-31T00:55:31;99755.25;;;9.62;100.00
67457;BME280;54319;52.038;4.640;2023-10-31T00:57:57;99758.22;;;9.60;100.00
67457;BME280;54319;52.038;4.640;2023-10-31T01:00:24;99756.09;;;9.62;100.00
67457;BME280;54319;52.038;4.640;2023-10-31T01:02:51;99757.16;;;9.61;100.00
67457;BME280;54319;52.038;4.640;2023-10-31T01:05:17;99762.59;;;9.61;100.00
67457;BME280;54319;52.038;4.640;2023-10-31T01:07:45;99764.94;;;9.58;100.00
67457;BME280;54319;52.038;4.640;2023-10-31T01:10:12;99760.47;;;9.63;100.00
67457;BME280;54319;52.038;4.640;2023-10-31T01:12:39;99770.75;;;9.61;100.00
67457;BME280;54319;52.038;4.640;2023-10-31T01:15:06;99760.47;;;9.63;100.00
67457;BME280;54319;52.038;4.640;2023-10-31T01:17:33;99765.06;;;9.63;100.00
67457;BME280;54319;52.038;4.640;2023-10-31T01:19:59;99780.94;;;9.66;100.00
67457;BME280;54319;52.038;4.640;2023-10-31T01:22:26;99776.72;;;9.70;100.00
67457;BME280;54319;52.038;4.640;2023-10-31T01:24:54;99768.84;;;9.62;100.00
67457;BME280;54319;52.038;4.640;2023-10-31T01:27:20;99787.63;;;9.70;100.00
67457;BME280;54319;52.038;4.640;2023-10-31T01:29:47;99782.75;;;9.72;100.00
67457;BME280;54319;52.038;4.640;2023-10-31T01:32:14;99788.22;;;9.72;100.00
67457;BME280;54319;52.038;4.640;2023-10-31T01:34:40;99790.94;;;9.72;100.00
67457;BME280;54319;52.038;4.640;2023-10-31T01:37:07;99798.03;;;9.73;100.00
67457;BME280;54319;52.038;4.640;2023-10-31T01:39:36;99798.03;;;9.73;100.00
67457;BME280;54319;52.038;4.640;2023-10-31T01:42:06;99802.41;;;9.74;100.00
67457;BME280;54319;52.038;4.640;2023-10-31T01:44:33;99792.47;;;9.68;100.00
67457;BME280;54319;52.038;4.640;2023-10-31T01:47:00;99806.81;;;9.75;100.00
67457;BME280;54319;52.038;4.640;2023-10-31T01:49:26;99810.81;;;9.73;100.00
67457;BME280;54319;52.038;4.640;2023-10-31T01:51:53;99820.63;;;9.74;100.00
67457;BME280;54319;52.038;4.640;2023-10-31T01:54:20;99820.88;;;9.72;100.00
67457;BME280;54319;52.038;4.640;2023-10-31T01:56:46;99804.97;;;9.57;100.00
67457;BME280;54319;52.038;4.640;2023-10-31T01:59:17;99819.44;;;9.69;100.00
67457;BME280;54319;52.038;4.640;2023-10-31T02:01:44;99831.19;;;9.70;100.00
67457;BME280;54319;52.038;4.640;2023-10-31T02:04:10;99831.41;;;9.68;100.00
67457;BME280;54319;52.038;4.640;2023-10-31T02:06:37;99828.94;;;9.67;100.00
67457;BME280;54319;52.038;4.640;2023-10-31T02:09:04;99829.75;;;9.67;100.00
67457;BME280;54319;52.038;4.640;2023-10-31T02:11:31;99829.16;;;9.65;100.00
67457;BME280;54319;52.038;4.640;2023-10-31T02:13:58;99841.69;;;9.66;100.00
67457;BME280;54319;52.038;4.640;2023-10-31T02:16:27;99834.59;;;9.65;100.00
67457;BME280;54319;52.038;4.640;2023-10-31T02:18:54;99826.50;;;9.59;100.00
67457;BME280;54319;52.038;4.640;2023-10-31T02:21:20;99837.53;;;9.64;100.00
67457;BME280;54319;52.038;4.640;2023-10-31T02:23:57;99827.69;;;9.51;100.00
67457;BME280;54319;52.038;4.640;2023-10-31T02:26:28;99841.09;;;9.64;100.00
67457;BME280;54319;52.038;4.640;2023-10-31T02:28:57;99836.72;;;9.63;100.00
67457;BME280;54319;52.038;4.640;2023-10-31T02:31:24;99830.16;;;9.52;100.00
67457;BME280;54319;52.038;4.640;2023-10-31T02:33:51;99844.88;;;9.63;100.00
67457;BME280;54319;52.038;4.640;2023-10-31T02:36:18;99819.81;;;9.43;100.00
67457;BME280;54319;52.038;4.640;2023-10-31T02:38:45;99850.53;;;9.62;100.00
67457;BME280;54319;52.038;4.640;2023-10-31T02:41:15;99854.13;;;9.62;100.00
67457;BME280;54319;52.038;4.640;2023-10-31T02:43:42;99850.19;;;9.58;100.00
67457;BME280;54319;52.038;4.640;2023-10-31T02:46:08;99846.88;;;9.56;100.00
67457;BME280;54319;52.038;4.640;2023-10-31T02:48:37;99855.19;;;9.61;100.00
67457;BME280;54319;52.038;4.640;2023-10-31T02:51:06;99864.16;;;9.62;100.00
67457;BME280;54319;52.038;4.640;2023-10-31T02:53:32;99846.41;;;9.59;100.00
67457;BME280;54319;52.038;4.640;2023-10-31T02:55:59;99857.66;;;9.63;100.00
67457;BME280;54319;52.038;4.640;2023-10-31T02:58:30;99863.47;;;9.66;100.00
67457;BME280;54319;52.038;4.640;2023-10-31T03:00:57;99872.25;;;9.68;100.00
67457;BME280;54319;52.038;4.640;2023-10-31T03:03:23;99874.84;;;9.63;100.00
67457;BME280;54319;52.038;4.640;2023-10-31T03:05:50;99866.88;;;9.62;100.00
67457;BME280;54319;52.038;4.640;2023-10-31T03:08:19;99867.72;;;9.62;100.00
67457;BME280;54319;52.038;4.640;2023-10-31T03:10:47;99874.69;;;9.58;100.00
67457;BME280;54319;52.038;4.640;2023-10-31T03:13:16;99871.59;;;9.54;100.00
67457;BME280;54319;52.038;4.640;2023-10-31T03:15:45;99881.28;;;9.50;100.00
67457;BME280;54319;52.038;4.640;2023-10-31T03:18:12;99880.22;;;9.51;100.00
67457;BME280;54319;52.038;4.640;2023-10-31T03:20:40;99890.28;;;9.51;100.00
67457;BME280;54319;52.038;4.640;2023-10-31T03:23:07;99886.97;;;9.49;100.00
67457;BME280;54319;52.038;4.640;2023-10-31T03:25:33;99867.59;;;9.38;100.00
67457;BME280;54319;52.038;4.640;2023-10-31T03:28:00;99893.09;;;9.44;100.00
67457;BME280;54319;52.038;4.640;2023-10-31T03:30:27;99895.22;;;9.42;100.00
67457;BME280;54319;52.038;4.640;2023-10-31T03:32:55;99894.81;;;9.38;100.00
67457;BME280;54319;52.038;4.640;2023-10-31T03:35:21;99894.00;;;9.38;100.00
67457;BME280;54319;52.038;4.640;2023-10-31T03:37:48;99901.94;;;9.39;100.00
67457;BME280;54319;52.038;4.640;2023-10-31T03:40:15;99904.03;;;9.37;100.00
67457;BME280;54319;52.038;4.640;2023-10-31T03:42:41;99898.00;;;9.35;100.00
67457;BME280;54319;52.038;4.640;2023-10-31T03:45:08;99905.56;;;9.33;100.00
67457;BME280;54319;52.038;4.640;2023-10-31T03:47:35;99898.47;;;9.32;100.00
67457;BME280;54319;52.038;4.640;2023-10-31T03:50:06;99898.47;;;9.32;100.00
67457;BME280;54319;52.038;4.640;2023-10-31T03:52:33;99903.31;;;9.30;100.00
67457;BME280;54319;52.038;4.640;2023-10-31T03:55:00;99883.41;;;9.11;100.00
67457;BME280;54319;52.038;4.640;2023-10-31T03:57:26;99897.16;;;9.16;100.00
67457;BME280;54319;52.038;4.640;2023-10-31T03:59:53;99910.47;;;9.24;100.00
67457;BME280;54319;52.038;4.640;2023-10-31T04:02:20;99907.75;;;9.24;100.00
67457;BME280;54319;52.038;4.640;2023-10-31T04:04:46;99912.97;;;9.26;100.00
67457;BME280;54319;52.038;4.640;2023-10-31T04:07:15;99917.38;;;9.27;100.00
67457;BME280;54319;52.038;4.640;2023-10-31T04:09:41;99895.38;;;9.29;100.00
67457;BME280;54319;52.038;4.640;2023-10-31T04:12:08;99913.78;;;9.26;100.00
67457;BME280;54319;52.038;4.640;2023-10-31T04:14:35;99900.88;;;9.22;100.00
67457;BME280;54319;52.038;4.640;2023-10-31T04:17:02;99916.44;;;9.33;100.00
67457;BME280;54319;52.038;4.640;2023-10-31T04:19:28;99908.00;;;9.23;100.00
67457;BME280;54319;52.038;4.640;2023-10-31T04:21:55;99921.75;;;9.28;100.00
67457;BME280;54319;52.038;4.640;2023-10-31T04:24:23;99930.53;;;9.30;100.00
67457;BME280;54319;52.038;4.640;2023-10-31T04:26:49;99942.25;;;9.31;100.00
67457;BME280;54319;52.038;4.640;2023-10-31T04:29:16;99934.28;;;9.29;100.00
67457;BME280;54319;52.038;4.640;2023-10-31T04:31:43;99936.41;;;9.27;100.00
67457;BME280;54319;52.038;4.640;2023-10-31T04:34:09;99942.47;;;9.29;100.00
67457;BME280;54319;52.038;4.640;2023-10-31T04:36:39;99938.06;;;9.28;100.00
67457;BME280;54319;52.038;4.640;2023-10-31T04:39:09;99940.81;;;9.28;100.00
67457;BME280;54319;52.038;4.640;2023-10-31T04:41:37;99944.78;;;9.25;100.00
67457;BME280;54319;52.038;4.640;2023-10-31T04:44:10;99948.22;;;9.21;100.00
67457;BME280;54319;52.038;4.640;2023-10-31T04:46:37;99943.97;;;9.25;100.00
67457;BME280;54319;52.038;4.640;2023-10-31T04:49:04;99945.63;;;9.26;100.00
67457;BME280;54319;52.038;4.640;2023-10-31T04:51:33;99939.44;;;9.19;100.00
67457;BME280;54319;52.038;4.640;2023-10-31T04:54:00;99945.69;;;9.19;100.00
67457;BME280;54319;52.038;4.640;2023-10-31T04:56:26;99958.03;;;9.22;100.00
67457;BME280;54319;52.038;4.640;2023-10-31T04:58:54;99965.00;;;9.18;100.00
67457;BME280;54319;52.038;4.640;2023-10-31T05:01:21;99958.94;;;9.16;100.00
67457;BME280;54319;52.038;4.640;2023-10-31T05:03:48;99966.72;;;9.12;100.00
67457;BME280;54319;52.038;4.640;2023-10-31T05:06:19;99964.00;;;9.12;100.00
67457;BME280;54319;52.038;4.640;2023-10-31T05:08:46;99962.97;;;9.06;100.00
67457;BME280;54319;52.038;4.640;2023-10-31T05:11:12;99963.69;;;9.02;100.00
67457;BME280;54319;52.038;4.640;2023-10-31T05:13:39;99982.38;;;9.17;100.00
67457;BME280;54319;52.038;4.640;2023-10-31T05:16:08;99987.81;;;9.17;100.00
67457;BME280;54319;52.038;4.640;2023-10-31T05:18:36;99988.44;;;9.19;100.00
67457;BME280;54319;52.038;4.640;2023-10-31T05:21:04;99994.06;;;9.17;100.00
67457;BME280;54319;52.038;4.640;2023-10-31T05:23:33;100006.88;;;9.17;100.00
67457;BME280;54319;52.038;4.640;2023-10-31T05:26:00;99998.09;;;9.15;100.00
67457;BME280;54319;52.038;4.640;2023-10-31T05:28:27;99989.38;;;9.06;100.00
67457;BME280;54319;52.038;4.640;2023-10-31T05:30:54;100005.41;;;9.14;100.00
67457;BME280;54319;52.038;4.640;2023-10-31T05:33:22;99999.34;;;9.12;100.00
67457;BME280;54319;52.038;4.640;2023-10-31T05:35:52;100009.94;;;9.20;100.00
67457;BME280;54319;52.038;4.640;2023-10-31T05:38:19;100002.41;;;9.22;100.00
67457;BME280;54319;52.038;4.640;2023-10-31T05:40:46;100008.69;;;9.23;100.00
67457;BME280;54319;52.038;4.640;2023-10-31T05:43:13;99987.72;;;9.05;100.00
67457;BME280;54319;52.038;4.640;2023-10-31T05:45:40;100010.56;;;9.22;100.00
67457;BME280;54319;52.038;4.640;2023-10-31T05:48:10;100017.66;;;9.23;100.00
67457;BME280;54319;52.038;4.640;2023-10-31T05:50:41;100005.41;;;9.14;100.00
67457;BME280;54319;52.038;4.640;2023-10-31T05:53:08;100008.53;;;9.18;100.00
67457;BME280;54319;52.038;4.640;2023-10-31T05:55:38;100015.63;;;9.19;100.00
67457;BME280;54319;52.038;4.640;2023-10-31T05:58:05;100017.50;;;9.18;100.00
67457;BME280;54319;52.038;4.640;2023-10-31T06:00:32;99983.16;;;8.98;100.00
67457;BME280;54319;52.038;4.640;2023-10-31T06:02:58;100029.25;;;9.19;100.00
67457;BME280;54319;52.038;4.640;2023-10-31T06:05:25;100021.53;;;9.16;100.00
67457;BME280;54319;52.038;4.640;2023-10-31T06:07:53;100026.97;;;9.16;100.00
67457;BME280;54319;52.038;4.640;2023-10-31T06:10:20;100030.75;;;9.15;100.00
67457;BME280;54319;52.038;4.640;2023-10-31T06:12:47;100035.50;;;9.19;100.00
67457;BME280;54319;52.038;4.640;2023-10-31T06:15:16;100034.69;;;9.19;100.00
67457;BME280;54319;52.038;4.640;2023-10-31T06:17:43;100035.75;;;9.18;100.00
67457;BME280;54319;52.038;4.640;2023-10-31T06:20:11;100020.72;;;9.08;100.00
67457;BME280;54319;52.038;4.640;2023-10-31T06:22:38;100015.72;;;9.05;100.00
67457;BME280;54319;52.038;4.640;2023-10-31T06:25:07;100038.66;;;9.16;100.00
67457;BME280;54319;52.038;4.640;2023-10-31T06:27:33;100006.03;;;8.91;100.00
67457;BME280;54319;52.038;4.640;2023-10-31T06:30:02;100034.97;;;9.10;100.00
67457;BME280;54319;52.038;4.640;2023-10-31T06:32:29;100046.28;;;9.07;100.00
67457;BME280;54319;52.038;4.640;2023-10-31T06:34:56;100043.84;;;8.99;100.00
67457;BME280;54319;52.038;4.640;2023-10-31T06:37:23;100046.56;;;8.99;100.00
67457;BME280;54319;52.038;4.640;2023-10-31T06:39:50;100054.72;;;8.99;100.00
67457;BME280;54319;52.038;4.640;2023-10-31T06:42:18;100064.53;;;9.00;100.00
67457;BME280;54319;52.038;4.640;2023-10-31T06:44:49;100061.00;;;9.00;100.00
67457;BME280;54319;52.038;4.640;2023-10-31T06:47:17;100050.16;;;8.93;100.00
67457;BME280;54319;52.038;4.640;2023-10-31T06:49:44;100066.03;;;8.96;100.00
67457;BME280;54319;52.038;4.640;2023-10-31T06:52:14;100058.59;;;8.85;100.00
67457;BME280;54319;52.038;4.640;2023-10-31T06:54:41;100026.47;;;8.68;100.00
67457;BME280;54319;52.038;4.640;2023-10-31T06:57:12;100072.38;;;8.90;100.00
67457;BME280;54319;52.038;4.640;2023-10-31T06:59:44;100066.97;;;8.83;100.00
67457;BME280;54319;52.038;4.640;2023-10-31T07:02:12;100086.31;;;9.00;100.00
67457;BME280;54319;52.038;4.640;2023-10-31T07:04:39;100085.69;;;8.98;100.00
67457;BME280;54319;52.038;4.640;2023-10-31T07:10:00;100095.25;;;9.07;100.00
67457;BME280;54319;52.038;4.640;2023-10-31T07:12:27;100098.97;;;9.13;100.00
67457;BME280;54319;52.038;4.640;2023-10-31T07:14:55;100097.03;;;9.20;100.00
67457;BME280;54319;52.038;4.640;2023-10-31T07:17:23;100104.09;;;9.28;100.00
67457;BME280;54319;52.038;4.640;2023-10-31T07:19:52;100092.13;;;9.36;100.00
67457;BME280;54319;52.038;4.640;2023-10-31T07:22:22;100099.16;;;9.44;100.00
67457;BME280;54319;52.038;4.640;2023-10-31T07:24:50;100103.94;;;9.48;100.00
67457;BME280;54319;52.038;4.640;2023-10-31T07:27:17;100105.84;;;9.48;100.00
67457;BME280;54319;52.038;4.640;2023-10-31T07:29:43;100110.84;;;9.51;100.00
67457;BME280;54319;52.038;4.640;2023-10-31T07:32:13;100109.31;;;9.55;100.00
67457;BME280;54319;52.038;4.640;2023-10-31T07:34:41;100120.38;;;9.60;100.00
67457;BME280;54319;52.038;4.640;2023-10-31T07:37:09;100117.81;;;9.65;100.00
67457;BME280;54319;52.038;4.640;2023-10-31T07:39:36;100122.00;;;9.68;100.00
67457;BME280;54319;52.038;4.640;2023-10-31T07:42:05;100133.69;;;9.68;100.00
67457;BME280;54319;52.038;4.640;2023-10-31T07:44:32;100128.03;;;9.70;100.00
67457;BME280;54319;52.038;4.640;2023-10-31T07:46:58;100132.88;;;9.68;100.00
67457;BME280;54319;52.038;4.640;2023-10-31T07:49:26;100131.22;;;9.67;100.00
67457;BME280;54319;52.038;4.640;2023-10-31T07:51:53;100129.75;;;9.64;100.00
67457;BME280;54319;52.038;4.640;2023-10-31T07:54:20;100122.66;;;9.63;100.00
67457;BME280;54319;52.038;4.640;2023-10-31T07:56:46;100135.97;;;9.72;100.00
67457;BME280;54319;52.038;4.640;2023-10-31T07:59:13;100129.91;;;9.69;100.00
67457;BME280;54319;52.038;4.640;2023-10-31T08:01:40;100130.31;;;9.73;100.00
67457;BME280;54319;52.038;4.640;2023-10-31T08:04:07;100130.06;;;9.75;100.00
67457;BME280;54319;52.038;4.640;2023-10-31T08:06:38;100127.97;;;9.77;100.00
67457;BME280;54319;52.038;4.640;2023-10-31T08:09:07;100134.16;;;9.84;100.00
67457;BME280;54319;52.038;4.640;2023-10-31T08:11:34;100136.00;;;9.90;100.00
67457;BME280;54319;52.038;4.640;2023-10-31T08:14:02;100136.63;;;9.92;100.00
67457;BME280;54319;52.038;4.640;2023-10-31T08:16:29;100144.78;;;9.92;100.00
67457;BME280;54319;52.038;4.640;2023-10-31T08:18:56;100144.56;;;9.94;100.00
67457;BME280;54319;52.038;4.640;2023-10-31T08:21:23;100141.31;;;10.04;100.00
67457;BME280;54319;52.038;4.640;2023-10-31T08:23:51;100134.00;;;10.04;100.00
67457;BME280;54319;52.038;4.640;2023-10-31T08:26:18;100144.03;;;10.22;100.00
67457;BME280;54319;52.038;4.640;2023-10-31T08:28:44;100143.16;;;10.28;100.00
67457;BME280;54319;52.038;4.640;2023-10-31T08:31:11;100145.56;;;10.37;100.00
67457;BME280;54319;52.038;4.640;2023-10-31T08:33:38;100148.91;;;10.39;100.00
67457;BME280;54319;52.038;4.640;2023-10-31T08:36:05;100156.19;;;10.64;100.00
67457;BME280;54319;52.038;4.640;2023-10-31T08:38:32;100153.22;;;10.65;100.00
67457;BME280;54319;52.038;4.640;2023-10-31T08:41:00;100154.38;;;10.88;100.00
67457;BME280;54319;52.038;4.640;2023-10-31T08:43:27;100160.13;;;10.98;100.00
67457;BME280;54319;52.038;4.640;2023-10-31T08:45:56;100106.28;;;10.75;100.00
67457;BME280;54319;52.038;4.640;2023-10-31T08:48:22;100173.38;;;11.25;100.00
67457;BME280;54319;52.038;4.640;2023-10-31T08:50:50;100172.94;;;11.40;100.00
67457;BME280;54319;52.038;4.640;2023-10-31T08:53:16;100173.44;;;11.61;100.00
67457;BME280;54319;52.038;4.640;2023-10-31T08:55:44;100160.97;;;11.65;100.00
67457;BME280;54319;52.038;4.640;2023-10-31T08:58:13;100149.09;;;11.48;100.00
67457;BME280;54319;52.038;4.640;2023-10-31T09:00:40;100181.66;;;11.73;100.00
67457;BME280;54319;52.038;4.640;2023-10-31T09:03:07;100190.44;;;11.75;100.00
67457;BME280;54319;52.038;4.640;2023-10-31T09:05:34;100190.78;;;11.55;100.00
67457;BME280;54319;52.038;4.640;2023-10-31T09:08:01;100195.63;;;11.53;100.00
67457;BME280;54319;52.038;4.640;2023-10-31T09:10:27;100194.66;;;11.47;100.00
67457;BME280;54319;52.038;4.640;2023-10-31T09:12:54;100195.84;;;11.39;100.00
67457;BME280;54319;52.038;4.640;2023-10-31T09:15:23;100170.06;;;11.23;100.00
67457;BME280;54319;52.038;4.640;2023-10-31T09:17:53;100195.56;;;11.29;100.00
67457;BME280;54319;52.038;4.640;2023-10-31T09:20:22;100199.84;;;11.25;100.00
67457;BME280;54319;52.038;4.640;2023-10-31T09:22:49;100209.34;;;11.34;100.00
67457;BME280;54319;52.038;4.640;2023-10-31T09:25:16;100215.19;;;11.38;100.00
67457;BME280;54319;52.038;4.640;2023-10-31T09:27:43;100213.31;;;11.38;100.00
67457;BME280;54319;52.038;4.640;2023-10-31T09:30:10;100214.72;;;11.41;100.00
67457;BME280;54319;52.038;4.640;2023-10-31T09:32:39;100206.63;;;11.34;100.00
67457;BME280;54319;52.038;4.640;2023-10-31T09:35:08;100221.50;;;11.38;100.00
67457;BME280;54319;52.038;4.640;2023-10-31T09:37:34;100223.00;;;11.22;100.00
67457;BME280;54319;52.038;4.640;2023-10-31T09:40:03;100210.81;;;11.06;100.00
67457;BME280;54319;52.038;4.640;2023-10-31T09:42:29;100231.47;;;11.14;100.00
67457;BME280;54319;52.038;4.640;2023-10-31T09:44:56;100229.94;;;11.06;100.00
67457;BME280;54319;52.038;4.640;2023-10-31T09:47:24;100225.66;;;11.10;100.00
67457;BME280;54319;52.038;4.640;2023-10-31T09:49:55;100227.84;;;11.20;100.00
67457;BME280;54319;52.038;4.640;2023-10-31T09:52:25;100218.16;;;11.36;100.00
67457;BME280;54319;52.038;4.640;2023-10-31T09:54:52;100231.28;;;11.58;100.00
67457;BME280;54319;52.038;4.640;2023-10-31T09:57:19;100230.94;;;11.78;100.00
67457;BME280;54319;52.038;4.640;2023-10-31T09:59:46;100228.97;;;11.97;100.00
67457;BME280;54319;52.038;4.640;2023-10-31T10:02:15;100240.41;;;12.18;100.00
67457;BME280;54319;52.038;4.640;2023-10-31T10:04:42;100226.00;;;12.11;100.00
67457;BME280;54319;52.038;4.640;2023-10-31T10:07:13;100249.06;;;12.27;100.00
67457;BME280;54319;52.038;4.640;2023-10-31T10:09:42;100250.25;;;12.31;100.00
67457;BME280;54319;52.038;4.640;2023-10-31T10:12:09;100256.19;;;12.28;100.00
67457;BME280;54319;52.038;4.640;2023-10-31T10:14:39;100259.91;;;12.34;100.00
67457;BME280;54319;52.038;4.640;2023-10-31T10:17:14;100260.97;;;12.44;100.00
67457;BME280;54319;52.038;4.640;2023-10-31T10:19:41;100264.03;;;12.48;100.00
67457;BME280;54319;52.038;4.640;2023-10-31T10:22:08;100260.97;;;12.44;100.00
67457;BME280;54319;52.038;4.640;2023-10-31T10:24:39;100268.00;;;12.52;100.00
67457;BME280;54319;52.038;4.640;2023-10-31T10:27:06;100265.84;;;12.54;100.00
67457;BME280;54319;52.038;4.640;2023-10-31T10:29:33;100277.97;;;12.70;100.00
67457;BME280;54319;52.038;4.640;2023-10-31T10:32:05;100285.81;;;12.55;100.00
67457;BME280;54319;52.038;4.640;2023-10-31T10:34:33;100285.69;;;12.62;100.00
67457;BME280;54319;52.038;4.640;2023-10-31T10:37:01;100274.88;;;12.43;100.00
67457;BME280;54319;52.038;4.640;2023-10-31T10:39:33;100277.50;;;12.38;100.00
67457;BME280;54319;52.038;4.640;2023-10-31T10:42:09;100273.22;;;12.42;100.00
67457;BME280;54319;52.038;4.640;2023-10-31T10:44:38;100281.78;;;12.34;100.00
67457;BME280;54319;52.038;4.640;2023-10-31T10:47:08;100265.13;;;12.23;100.00
67457;BME280;54319;52.038;4.640;2023-10-31T10:49:41;100280.34;;;12.43;100.00
67457;BME280;54319;52.038;4.640;2023-10-31T10:52:22;100283.56;;;12.28;100.00
67457;BME280;54319;52.038;4.640;2023-10-31T10:54:53;100280.97;;;12.21;100.00
67457;BME280;54319;52.038;4.640;2023-10-31T10:57:30;100265.72;;;12.13;100.00
67457;BME280;54319;52.038;4.640;2023-10-31T11:00:02;100286.44;;;12.33;100.00
67457;BME280;54319;52.038;4.640;2023-10-31T11:02:30;100293.44;;;12.41;100.00
67457;BME280;54319;52.038;4.640;2023-10-31T11:05:02;100287.38;;;12.39;100.00
67457;BME280;54319;52.038;4.640;2023-10-31T11:07:29;100294.50;;;12.52;100.00
67457;BME280;54319;52.038;4.640;2023-10-31T11:09:57;100297.50;;;12.50;100.00
67457;BME280;54319;52.038;4.640;2023-10-31T11:12:29;100267.03;;;12.58;100.00
67457;BME280;54319;52.038;4.640;2023-10-31T11:14:57;100304.41;;;13.06;100.00
67457;BME280;54319;52.038;4.640;2023-10-31T11:17:27;100304.63;;;13.16;100.00
67457;BME280;54319;52.038;4.640;2023-10-31T11:19:55;100298.28;;;13.27;100.00
67457;BME280;54319;52.038;4.640;2023-10-31T11:22:22;100298.19;;;13.22;100.00
67457;BME280;54319;52.038;4.640;2023-10-31T11:24:49;100305.22;;;13.18;100.00
67457;BME280;54319;52.038;4.640;2023-10-31T11:27:17;100310.53;;;12.96;100.00
67457;BME280;54319;52.038;4.640;2023-10-31T11:29:48;100308.66;;;12.61;100.00
67457;BME280;54319;52.038;4.640;2023-10-31T11:32:15;100318.41;;;12.56;100.00
67457;BME280;54319;52.038;4.640;2023-10-31T11:34:42;100314.94;;;12.49;100.00
67457;BME280;54319;52.038;4.640;2023-10-31T11:37:19;100308.06;;;12.58;100.00
67457;BME280;54319;52.038;4.640;2023-10-31T11:42:27;100309.25;;;12.39;100.00
67457;BME280;54319;52.038;4.640;2023-10-31T11:45:00;100309.38;;;12.44;100.00
67457;BME280;54319;52.038;4.640;2023-10-31T11:47:45;100309.13;;;12.34;100.00
67457;BME280;54319;52.038;4.640;2023-10-31T11:50:11;100309.13;;;12.34;100.00
67457;BME280;54319;52.038;4.640;2023-10-31T11:52:38;100306.41;;;12.34;100.00
67457;BME280;54319;52.038;4.640;2023-10-31T11:55:09;100304.50;;;12.22;100.00
67457;BME280;54319;52.038;4.640;2023-10-31T11:57:36;100305.22;;;12.41;100.00
67457;BME280;54319;52.038;4.640;2023-10-31T12:00:20;100306.28;;;12.52;100.00
67457;BME280;54319;52.038;4.640;2023-10-31T12:02:57;100305.56;;;12.57;100.00
67457;BME280;54319;52.038;4.640;2023-10-31T12:05:23;100307.00;;;12.48;100.00
67457;BME280;54319;52.038;4.640;2023-10-31T12:07:51;100309.38;;;12.56;100.00
67457;BME280;54319;52.038;4.640;2023-10-31T12:10:22;100310.22;;;12.56;100.00
67457;BME280;54319;52.038;4.640;2023-10-31T12:12:50;100305.34;;;12.70;100.00
67457;BME280;54319;52.038;4.640;2023-10-31T12:15:18;100309.72;;;12.71;100.00
67457;BME280;54319;52.038;4.640;2023-10-31T12:17:48;100313.28;;;12.84;100.00
67457;BME280;54319;52.038;4.640;2023-10-31T12:20:16;100306.06;;;13.07;100.00
67457;BME280;54319;52.038;4.640;2023-10-31T12:22:43;100323.81;;;13.16;100.00
67457;BME280;54319;52.038;4.640;2023-10-31T12:25:10;100313.25;;;13.08;100.00
67457;BME280;54319;52.038;4.640;2023-10-31T12:27:44;100326.38;;;12.82;100.00
67457;BME280;54319;52.038;4.640;2023-10-31T12:30:17;100327.44;;;12.69;100.00
67457;BME280;54319;52.038;4.640;2023-10-31T12:32:52;100330.28;;;12.74;100.00
67457;BME280;54319;52.038;4.640;2023-10-31T12:35:21;100341.25;;;12.74;100.00
67457;BME280;54319;52.038;4.640;2023-10-31T12:37:49;100324.97;;;12.55;100.00
67457;BME280;54319;52.038;4.640;2023-10-31T12:40:18;100335.06;;;12.67;100.00
67457;BME280;54319;52.038;4.640;2023-10-31T12:42:46;100339.69;;;12.66;100.00
67457;BME280;54319;52.038;4.640;2023-10-31T12:45:13;100320.41;;;12.49;100.00
67457;BME280;54319;52.038;4.640;2023-10-31T12:47:41;100331.72;;;12.53;100.00
67457;BME280;54319;52.038;4.640;2023-10-31T12:50:14;100334.34;;;12.48;100.00
67457;BME280;54319;52.038;4.640;2023-10-31T12:52:50;100337.44;;;12.39;100.00
67457;BME280;54319;52.038;4.640;2023-10-31T12:55:22;100337.91;;;12.48;100.00
67457;BME280;54319;52.038;4.640;2023-10-31T12:57:49;100339.47;;;12.44;100.00
67457;BME280;54319;52.038;4.640;2023-10-31T13:00:17;100339.13;;;12.52;100.00